Time;durP1;ratioP1;P1;durP2;ratioP2;P2;SDS_P1;SDS_P2;PMS_P1;PMS_P2;Temp;Humidity;BMP_temperature;BMP_pressure;BME280_temperature;BME280_humidity;BME280_pressure;Samples;Min_cycle;Max_cycle;Signal;HPM_P1;HPM_P2
2022/12/08 00:01:46;;;;;;;;;;;0.80;99.90;;;;;;5024765;28;19925;-73
2022/12/08 00:04:17;;;;;;;;;;;0.90;99.90;;;;;;5019477;28;19952;-74
2022/12/08 00:09:40;;;;;;;;;;;0.90;99.90;;;;;;5036988;28;20281;-73
2022/12/08 00:12:14;;;;;;;;;;;0.90;99.90;;;;;;5030615;28;20367;-74
2022/12/08 00:14:46;;;;;;;;;;;0.90;99.90;;;;;;5027957;28;20360;-74
2022/12/08 00:17:17;;;;;;;;;;;0.80;99.90;;;;;;5016584;28;19929;-74
2022/12/08 00:19:49;;;;;;;;;;;0.80;99.90;;;;;;5038490;28;20338;-72
2022/12/08 00:22:21;;;;;;;;;;;0.80;99.90;;;;;;5030234;28;19975;-75
2022/12/08 00:24:52;;;;;;;;;;;0.80;99.90;;;;;;5021054;28;20318;-74
2022/12/08 00:27:24;;;;;;;;;;;0.80;99.90;;;;;;5039941;28;20373;-73
2022/12/08 00:29:55;;;;;;;;;;;0.70;99.90;;;;;;5032771;28;19924;-74
2022/12/08 00:32:27;;;;;;;;;;;0.70;99.90;;;;;;5036348;28;19925;-74
2022/12/08 00:34:58;;;;;;;;;;;0.70;99.90;;;;;;5027012;28;19925;-74
2022/12/08 00:37:30;;;;;;;;;;;0.70;99.90;;;;;;5045118;28;19929;-73
2022/12/08 00:40:02;;;;;;;;;;;0.80;99.90;;;;;;5035781;28;19925;-74
2022/12/08 00:42:33;;;;;;;;;;;0.80;99.90;;;;;;5050728;28;19924;-75
2022/12/08 00:45:05;;;;;;;;;;;0.70;99.90;;;;;;5023390;28;19925;-74
2022/12/08 00:47:37;;;;;;;;;;;0.70;99.90;;;;;;5029527;28;19971;-73
2022/12/08 00:50:08;;;;;;;;;;;0.80;99.90;;;;;;5001179;28;19929;-73
2022/12/08 00:52:40;;;;;;;;;;;0.80;99.90;;;;;;5013702;28;19925;-74
2022/12/08 00:55:11;;;;;;;;;;;0.80;99.90;;;;;;5031945;28;19929;-74
2022/12/08 00:57:43;;;;;;;;;;;0.80;99.90;;;;;;5027982;28;19936;-73
2022/12/08 01:00:15;;;;;;;;;;;0.80;99.90;;;;;;5042487;28;19971;-74
2022/12/08 01:02:46;;;;;;;;;;;0.80;99.90;;;;;;5042306;28;19983;-74
2022/12/08 01:05:18;;;;;;;;;;;0.80;99.90;;;;;;5017824;28;19929;-74
2022/12/08 01:07:44;;;;;;;;;;;0.80;99.90;;;;;;5046503;28;19951;-74
2022/12/08 01:10:16;;;;;;;;;;;0.80;99.90;;;;;;5046764;28;19931;-74
2022/12/08 01:12:47;;;;;;;;;;;0.80;99.90;;;;;;5039463;28;19932;-74
2022/12/08 01:15:19;;;;;;;;;;;0.80;99.90;;;;;;5039479;28;19924;-74
2022/12/08 01:17:51;;;;;;;;;;;0.90;99.90;;;;;;5000640;28;19975;-73
2022/12/08 01:20:22;;;;;;;;;;;0.90;99.90;;;;;;5020697;28;19975;-73
2022/12/08 01:22:54;;;;;;;;;;;0.90;99.90;;;;;;5040809;28;19925;-72
2022/12/08 01:25:25;;;;;;;;;;;0.80;99.90;;;;;;5019540;28;19925;-73
2022/12/08 01:27:57;;;;;;;;;;;0.80;99.90;;;;;;5041413;28;19925;-73
2022/12/08 01:30:29;;;;;;;;;;;0.80;99.90;;;;;;5046843;28;19959;-74
2022/12/08 01:33:00;;;;;;;;;;;0.80;99.90;;;;;;5021676;28;19933;-73
2022/12/08 01:35:32;;;;;;;;;;;0.80;99.90;;;;;;5014052;28;19929;-73
2022/12/08 01:38:04;;;;;;;;;;;0.90;99.90;;;;;;5039632;28;19925;-74
2022/12/08 01:40:35;;;;;;;;;;;0.90;99.90;;;;;;5026373;28;19952;-75
2022/12/08 01:43:18;;;;;;;;;;;0.90;99.90;;;;;;5021305;28;19975;-74
2022/12/08 01:45:50;;;;;;;;;;;0.90;99.90;;;;;;5048571;28;19929;-74
2022/12/08 01:48:24;;;;;;;;;;;0.90;99.90;;;;;;5007721;28;19933;-75
2022/12/08 01:50:56;;;;;;;;;;;1.00;99.90;;;;;;5011276;28;19974;-74
2022/12/08 01:53:31;;;;;;;;;;;1.00;99.90;;;;;;5006189;28;19929;-73
2022/12/08 01:56:16;;;;;;;;;;;1.00;99.90;;;;;;5033255;28;19925;-75
2022/12/08 01:58:50;;;;;;;;;;;1.00;99.90;;;;;;5026443;28;19933;-74
2022/12/08 02:01:22;;;;;;;;;;;1.00;99.90;;;;;;5049232;28;19929;-75
2022/12/08 02:03:57;;;;;;;;;;;1.00;99.90;;;;;;5044342;28;19929;-73
2022/12/08 02:06:31;;;;;;;;;;;1.10;99.90;;;;;;5044086;28;19971;-75
2022/12/08 02:09:04;;;;;;;;;;;1.10;99.90;;;;;;5040329;28;20306;-73
2022/12/08 02:11:35;;;;;;;;;;;1.10;99.90;;;;;;5037828;28;20624;-74
2022/12/08 02:14:09;;;;;;;;;;;1.00;99.90;;;;;;5044775;28;19928;-75
2022/12/08 02:17:19;;;;;;;;;;;1.00;99.90;;;;;;5038620;28;19932;-75
2022/12/08 02:19:53;;;;;;;;;;;1.00;99.90;;;;;;4989945;28;20429;-74
2022/12/08 02:22:33;;;;;;;;;;;1.00;99.90;;;;;;4977472;28;19985;-75
2022/12/08 02:25:05;;;;;;;;;;;1.00;99.90;;;;;;5012348;28;19947;-73
2022/12/08 02:28:06;;;;;;;;;;;1.00;99.90;;;;;;5043957;28;19925;-73
2022/12/08 02:30:58;;;;;;;;;;;1.00;99.90;;;;;;4997335;28;19929;-75
2022/12/08 02:34:03;;;;;;;;;;;1.00;99.90;;;;;;5028972;28;19932;-73
2022/12/08 02:36:50;;;;;;;;;;;1.00;99.90;;;;;;5010490;28;20304;-73
2022/12/08 02:39:22;;;;;;;;;;;1.00;99.90;;;;;;5024985;28;19982;-74
2022/12/08 02:42:16;;;;;;;;;;;1.00;99.90;;;;;;5023351;28;19991;-75
2022/12/08 02:44:54;;;;;;;;;;;1.00;99.90;;;;;;5010047;28;20012;-74
2022/12/08 02:47:26;;;;;;;;;;;1.00;99.90;;;;;;5028443;28;20335;-72
2022/12/08 02:49:58;;;;;;;;;;;0.90;99.90;;;;;;5040050;28;20289;-73
2022/12/08 02:52:30;;;;;;;;;;;0.90;99.90;;;;;;5038746;28;19925;-74
2022/12/08 02:55:03;;;;;;;;;;;0.90;99.90;;;;;;5008402;28;19929;-74
2022/12/08 02:57:53;;;;;;;;;;;0.90;99.90;;;;;;5025023;28;19975;-73
2022/12/08 03:00:27;;;;;;;;;;;0.90;99.90;;;;;;5005609;28;19975;-73
2022/12/08 03:03:00;;;;;;;;;;;0.90;99.90;;;;;;5033861;28;19979;-73
2022/12/08 03:05:40;;;;;;;;;;;0.90;99.90;;;;;;5008332;28;19967;-75
2022/12/08 03:08:19;;;;;;;;;;;0.90;99.90;;;;;;5045363;28;19982;-74
2022/12/08 03:10:57;;;;;;;;;;;0.90;99.90;;;;;;5040931;28;19929;-73
2022/12/08 03:13:33;;;;;;;;;;;0.90;99.90;;;;;;5034660;28;19971;-75
2022/12/08 03:16:06;;;;;;;;;;;1.00;99.90;;;;;;5015005;28;19932;-73
2022/12/08 03:18:40;;;;;;;;;;;0.90;99.90;;;;;;5038208;28;19932;-74
2022/12/08 03:21:13;;;;;;;;;;;0.90;99.90;;;;;;5030083;28;19925;-75
2022/12/08 03:23:41;;;;;;;;;;;0.90;99.90;;;;;;5024575;28;19928;-75
2022/12/08 03:26:18;;;;;;;;;;;0.90;99.90;;;;;;5042316;28;19978;-74
2022/12/08 03:28:49;;;;;;;;;;;0.90;99.90;;;;;;5038753;28;19929;-75
2022/12/08 03:31:24;;;;;;;;;;;0.90;99.90;;;;;;5044497;28;20303;-74
2022/12/08 03:33:57;;;;;;;;;;;1.00;99.90;;;;;;5021999;28;19929;-74
2022/12/08 03:36:28;;;;;;;;;;;0.90;99.90;;;;;;5039488;28;19929;-75
2022/12/08 03:39:00;;;;;;;;;;;0.90;99.90;;;;;;5033330;28;20489;-75
2022/12/08 03:41:32;;;;;;;;;;;0.80;99.90;;;;;;5024311;28;19929;-73
2022/12/08 03:44:03;;;;;;;;;;;0.80;99.90;;;;;;5038783;28;19925;-75
2022/12/08 03:46:35;;;;;;;;;;;0.80;99.90;;;;;;5031264;28;19952;-74
2022/12/08 03:49:06;;;;;;;;;;;0.70;99.90;;;;;;5041861;28;19932;-74
2022/12/08 03:51:38;;;;;;;;;;;0.70;99.90;;;;;;5036097;28;19925;-74
2022/12/08 03:54:10;;;;;;;;;;;0.70;99.90;;;;;;5004530;28;19925;-74
2022/12/08 03:56:41;;;;;;;;;;;0.70;99.90;;;;;;5035203;28;19979;-75
2022/12/08 03:59:13;;;;;;;;;;;0.70;99.90;;;;;;5016640;28;19929;-74
2022/12/08 04:01:44;;;;;;;;;;;0.60;99.90;;;;;;5030594;28;19936;-74
2022/12/08 04:04:16;;;;;;;;;;;0.60;99.90;;;;;;5047411;28;19929;-74
2022/12/08 04:06:48;;;;;;;;;;;0.60;99.90;;;;;;5044472;28;19978;-75
2022/12/08 04:09:19;;;;;;;;;;;0.60;99.90;;;;;;5045455;28;19929;-74
2022/12/08 04:11:51;;;;;;;;;;;0.60;99.90;;;;;;5041604;28;19932;-74
2022/12/08 04:14:22;;;;;;;;;;;0.60;99.90;;;;;;5035727;28;19936;-75
2022/12/08 04:16:54;;;;;;;;;;;0.50;99.90;;;;;;5036485;28;19924;-73
2022/12/08 04:19:25;;;;;;;;;;;0.50;99.90;;;;;;5022396;28;19960;-75
2022/12/08 04:21:57;;;;;;;;;;;0.50;99.90;;;;;;5042608;28;20482;-74
2022/12/08 04:24:28;;;;;;;;;;;0.50;99.90;;;;;;5033243;28;19976;-77
2022/12/08 04:27:00;;;;;;;;;;;0.40;99.90;;;;;;5027881;28;19929;-75
2022/12/08 04:29:31;;;;;;;;;;;0.40;99.90;;;;;;5037828;28;20014;-73
2022/12/08 04:32:03;;;;;;;;;;;0.50;99.90;;;;;;5031169;28;19983;-73
2022/12/08 04:34:35;;;;;;;;;;;0.40;99.90;;;;;;5030375;28;19929;-74
2022/12/08 04:37:06;;;;;;;;;;;0.40;99.90;;;;;;5038020;28;19978;-74
2022/12/08 04:39:38;;;;;;;;;;;0.30;99.90;;;;;;5022940;28;20012;-73
2022/12/08 04:42:09;;;;;;;;;;;0.20;99.90;;;;;;5037448;28;19929;-75
2022/12/08 04:44:41;;;;;;;;;;;0.20;99.90;;;;;;5043848;28;19997;-74
2022/12/08 04:47:12;;;;;;;;;;;0.20;99.90;;;;;;5036192;28;20400;-73
2022/12/08 04:49:44;;;;;;;;;;;0.20;99.90;;;;;;5005008;28;19925;-74
2022/12/08 04:52:16;;;;;;;;;;;0.10;99.90;;;;;;5044009;28;19972;-75
2022/12/08 04:54:47;;;;;;;;;;;0.10;99.90;;;;;;5036387;28;20304;-74
2022/12/08 04:57:19;;;;;;;;;;;0.00;99.90;;;;;;5018735;28;19928;-74
2022/12/08 04:59:50;;;;;;;;;;;0.00;99.90;;;;;;5027599;28;19932;-74
2022/12/08 05:02:22;;;;;;;;;;;0.00;99.90;;;;;;5040810;28;19932;-74
2022/12/08 05:04:53;;;;;;;;;;;0.00;99.90;;;;;;5033491;28;19928;-73
2022/12/08 05:07:25;;;;;;;;;;;-0.10;99.90;;;;;;5023766;28;19929;-74
2022/12/08 05:09:52;;;;;;;;;;;-0.10;99.90;;;;;;5034833;28;19933;-74
2022/12/08 05:12:23;;;;;;;;;;;-0.20;99.90;;;;;;5029980;28;19925;-74
2022/12/08 05:14:55;;;;;;;;;;;-0.20;99.90;;;;;;5030495;28;19987;-74
2022/12/08 05:17:26;;;;;;;;;;;-0.30;99.90;;;;;;5032318;28;19979;-74
2022/12/08 05:19:58;;;;;;;;;;;-0.30;99.90;;;;;;5037148;28;19933;-74
2022/12/08 05:22:30;;;;;;;;;;;-0.30;99.90;;;;;;5053059;28;20341;-75
2022/12/08 05:25:01;;;;;;;;;;;-0.30;99.90;;;;;;5033470;28;19924;-72
2022/12/08 05:27:33;;;;;;;;;;;-0.40;99.90;;;;;;5026053;28;19933;-75
2022/12/08 05:30:05;;;;;;;;;;;-0.50;99.90;;;;;;5031683;28;19925;-74
2022/12/08 05:32:36;;;;;;;;;;;-0.50;99.90;;;;;;5000421;28;20328;-74
2022/12/08 05:35:08;;;;;;;;;;;-0.60;99.90;;;;;;5031975;28;19925;-74
2022/12/08 05:37:40;;;;;;;;;;;-0.60;99.90;;;;;;5019446;28;19925;-74
2022/12/08 05:40:11;;;;;;;;;;;-0.60;99.90;;;;;;5034123;28;19956;-74
2022/12/08 05:42:43;;;;;;;;;;;-0.60;99.90;;;;;;4996663;28;19929;-75
2022/12/08 05:45:14;;;;;;;;;;;-0.60;99.90;;;;;;5037851;28;19995;-74
2022/12/08 05:47:46;;;;;;;;;;;-0.70;99.90;;;;;;5015564;28;19925;-74
2022/12/08 05:50:18;;;;;;;;;;;-0.70;99.90;;;;;;5045427;28;19979;-75
2022/12/08 05:52:49;;;;;;;;;;;-0.70;99.90;;;;;;5031214;28;19979;-74
2022/12/08 05:55:21;;;;;;;;;;;-0.70;99.90;;;;;;5033041;28;19932;-75
2022/12/08 05:57:52;;;;;;;;;;;-0.70;99.90;;;;;;5031565;28;19925;-74
2022/12/08 06:00:25;;;;;;;;;;;-0.70;99.90;;;;;;5031461;28;19951;-74
2022/12/08 06:02:56;;;;;;;;;;;-0.70;99.90;;;;;;5033084;28;20320;-76
2022/12/08 06:05:28;;;;;;;;;;;-0.70;99.90;;;;;;5031770;28;19929;-73
2022/12/08 06:08:00;;;;;;;;;;;-0.70;99.90;;;;;;5022247;28;19932;-73
2022/12/08 06:10:27;;;;;;;;;;;-0.60;99.90;;;;;;5017569;28;20559;-74
2022/12/08 06:12:58;;;;;;;;;;;-0.60;99.90;;;;;;5052726;28;19925;-74
2022/12/08 06:15:30;;;;;;;;;;;-0.60;99.90;;;;;;5033076;28;19955;-74
2022/12/08 06:18:01;;;;;;;;;;;-0.60;99.90;;;;;;5033829;28;19979;-75
2022/12/08 06:20:33;;;;;;;;;;;-0.70;99.90;;;;;;5031504;28;20383;-74
2022/12/08 06:23:04;;;;;;;;;;;-0.70;99.90;;;;;;5041260;28;20068;-74
2022/12/08 06:25:36;;;;;;;;;;;-0.70;99.90;;;;;;5015229;28;19925;-74
2022/12/08 06:28:07;;;;;;;;;;;-0.70;99.90;;;;;;5042880;28;19924;-72
2022/12/08 06:30:39;;;;;;;;;;;-0.80;99.90;;;;;;5020180;28;19972;-74
2022/12/08 06:33:11;;;;;;;;;;;-0.80;99.90;;;;;;5026805;28;19951;-74
2022/12/08 06:35:42;;;;;;;;;;;-0.90;99.90;;;;;;5040783;28;19979;-73
2022/12/08 06:38:14;;;;;;;;;;;-0.90;99.90;;;;;;5029129;28;20387;-74
2022/12/08 06:40:52;;;;;;;;;;;-1.00;99.90;;;;;;5042782;28;19925;-74
2022/12/08 06:43:24;;;;;;;;;;;-1.00;99.90;;;;;;5034220;28;19925;-76
2022/12/08 06:45:55;;;;;;;;;;;-1.00;99.90;;;;;;5035863;28;19991;-75
2022/12/08 06:48:27;;;;;;;;;;;-1.00;99.90;;;;;;5036771;28;19932;-75
2022/12/08 06:51:08;;;;;;;;;;;-0.90;99.90;;;;;;5039870;28;19928;-73
2022/12/08 06:53:40;;;;;;;;;;;-1.00;99.90;;;;;;5037294;28;19975;-74
2022/12/08 06:56:08;;;;;;;;;;;-1.00;99.90;;;;;;5035943;28;19929;-75
2022/12/08 06:58:39;;;;;;;;;;;-0.90;99.90;;;;;;5026572;28;19933;-75
2022/12/08 07:01:11;;;;;;;;;;;-0.90;99.90;;;;;;5022293;28;19929;-74
2022/12/08 07:03:43;;;;;;;;;;;-0.90;99.90;;;;;;5038767;28;20502;-75
2022/12/08 07:06:17;;;;;;;;;;;-0.90;99.90;;;;;;5034582;28;19932;-74
2022/12/08 07:08:48;;;;;;;;;;;-0.90;99.90;;;;;;5029786;28;19932;-76
2022/12/08 07:11:16;;;;;;;;;;;-0.90;99.90;;;;;;5028398;28;19929;-74
2022/12/08 07:13:47;;;;;;;;;;;-1.00;99.90;;;;;;5015156;28;20457;-74
2022/12/08 07:16:19;;;;;;;;;;;-1.00;99.90;;;;;;5033600;28;19971;-74
2022/12/08 07:18:51;;;;;;;;;;;-1.00;99.90;;;;;;5020545;28;19934;-74
2022/12/08 07:21:22;;;;;;;;;;;-1.00;99.90;;;;;;5028706;28;19971;-73
2022/12/08 07:23:54;;;;;;;;;;;-1.10;99.90;;;;;;5029303;28;19975;-74
2022/12/08 07:26:26;;;;;;;;;;;-1.10;99.90;;;;;;5033754;28;19925;-73
2022/12/08 07:28:58;;;;;;;;;;;-1.10;99.90;;;;;;5032905;28;19932;-73
2022/12/08 07:31:30;;;;;;;;;;;-1.10;99.90;;;;;;5029811;28;21898;-73
2022/12/08 07:34:01;;;;;;;;;;;-1.20;99.90;;;;;;5007569;28;19975;-74
2022/12/08 07:36:33;;;;;;;;;;;-1.10;99.90;;;;;;5031136;28;19971;-74
2022/12/08 07:39:05;;;;;;;;;;;-1.10;99.90;;;;;;5027959;28;19952;-75
2022/12/08 07:41:36;;;;;;;;;;;-1.10;99.90;;;;;;5029922;28;19925;-75
2022/12/08 07:44:08;;;;;;;;;;;-1.00;99.90;;;;;;5037402;28;19925;-74
2022/12/08 07:46:39;;;;;;;;;;;-1.10;99.90;;;;;;5036343;28;19978;-73
2022/12/08 07:49:12;;;;;;;;;;;-1.10;99.90;;;;;;5033910;28;19932;-74
2022/12/08 07:51:44;;;;;;;;;;;-1.10;99.90;;;;;;5022065;28;20383;-75
2022/12/08 07:54:15;;;;;;;;;;;-1.10;99.90;;;;;;5033237;28;19925;-75
2022/12/08 07:56:47;;;;;;;;;;;-1.10;99.90;;;;;;5015584;28;21617;-75
2022/12/08 07:59:18;;;;;;;;;;;-1.10;99.90;;;;;;5023458;28;19925;-75
2022/12/08 08:01:50;;;;;;;;;;;-1.00;99.90;;;;;;5015841;28;19929;-75
2022/12/08 08:04:21;;;;;;;;;;;-1.00;99.90;;;;;;5029571;28;19986;-75
2022/12/08 08:06:53;;;;;;;;;;;-1.00;99.90;;;;;;5025825;28;19933;-75
2022/12/08 08:09:24;;;;;;;;;;;-1.00;99.90;;;;;;5029926;28;19940;-76
2022/12/08 08:11:56;;;;;;;;;;;-0.90;99.90;;;;;;5020558;28;19925;-75
2022/12/08 08:14:28;;;;;;;;;;;-0.90;99.90;;;;;;5040264;28;19990;-75
2022/12/08 08:16:59;;;;;;;;;;;-0.90;99.90;;;;;;5032182;28;19925;-75
2022/12/08 08:19:31;;;;;;;;;;;-0.90;99.90;;;;;;5030103;28;19933;-75
2022/12/08 08:22:03;;;;;;;;;;;-0.80;99.90;;;;;;5014887;28;19953;-75
2022/12/08 08:24:34;;;;;;;;;;;-0.80;99.90;;;;;;5027933;28;19995;-76
2022/12/08 08:27:06;;;;;;;;;;;-0.80;99.90;;;;;;5015090;28;19929;-76
2022/12/08 08:29:37;;;;;;;;;;;-0.70;99.90;;;;;;5029410;28;19925;-75
2022/12/08 08:32:09;;;;;;;;;;;-0.70;99.90;;;;;;5033813;28;19926;-75
2022/12/08 08:34:42;;;;;;;;;;;-0.60;99.90;;;;;;5042767;28;19932;-76
2022/12/08 08:37:13;;;;;;;;;;;-0.60;99.90;;;;;;5035871;28;19936;-76
2022/12/08 08:39:45;;;;;;;;;;;-0.60;99.90;;;;;;5029246;28;19983;-75
2022/12/08 08:42:17;;;;;;;;;;;-0.50;99.90;;;;;;5012976;28;20462;-73
2022/12/08 08:44:48;;;;;;;;;;;-0.50;99.90;;;;;;5038686;28;20272;-75
2022/12/08 08:47:20;;;;;;;;;;;-0.50;99.90;;;;;;5024410;28;19971;-74
2022/12/08 08:49:51;;;;;;;;;;;-0.50;99.90;;;;;;5019082;28;19980;-74
2022/12/08 08:52:24;;;;;;;;;;;-0.40;99.90;;;;;;5039861;28;19978;-73
2022/12/08 08:54:56;;;;;;;;;;;-0.40;99.90;;;;;;5046443;28;19929;-74
2022/12/08 08:57:27;;;;;;;;;;;-0.40;99.90;;;;;;5030029;28;19925;-76
2022/12/08 08:59:54;;;;;;;;;;;-0.40;99.90;;;;;;5015479;28;20010;-73
2022/12/08 09:02:25;;;;;;;;;;;-0.40;99.90;;;;;;5030533;28;20376;-73
2022/12/08 09:04:57;;;;;;;;;;;-0.40;99.90;;;;;;5010863;28;19936;-74
2022/12/08 09:07:29;;;;;;;;;;;-0.40;99.90;;;;;;5041847;28;19990;-73
2022/12/08 09:10:00;;;;;;;;;;;-0.40;99.90;;;;;;5023376;28;19999;-74
2022/12/08 09:12:32;;;;;;;;;;;-0.30;99.90;;;;;;4999708;28;19925;-75
2022/12/08 09:15:04;;;;;;;;;;;-0.30;99.90;;;;;;5032891;28;19941;-74
2022/12/08 09:17:35;;;;;;;;;;;-0.30;99.90;;;;;;5028445;28;19975;-74
2022/12/08 09:20:07;;;;;;;;;;;-0.30;99.90;;;;;;5032290;28;19929;-73
2022/12/08 09:22:39;;;;;;;;;;;-0.30;99.90;;;;;;5032762;28;20288;-73
2022/12/08 09:25:10;;;;;;;;;;;-0.30;99.90;;;;;;5035843;28;19983;-73
2022/12/08 09:27:43;;;;;;;;;;;-0.30;99.90;;;;;;5033353;28;20016;-74
2022/12/08 09:30:15;;;;;;;;;;;-0.30;99.90;;;;;;5027560;28;19980;-75
2022/12/08 09:32:47;;;;;;;;;;;-0.20;99.90;;;;;;5031672;28;19925;-74
2022/12/08 09:35:19;;;;;;;;;;;-0.20;99.90;;;;;;5035531;28;19925;-75
2022/12/08 09:37:50;;;;;;;;;;;-0.20;99.90;;;;;;5036566;28;19932;-75
2022/12/08 09:40:22;;;;;;;;;;;-0.20;99.90;;;;;;5017403;28;19929;-76
2022/12/08 09:43:00;;;;;;;;;;;-0.10;99.90;;;;;;5040911;28;19925;-76
2022/12/08 09:45:35;;;;;;;;;;;-0.10;99.90;;;;;;5010971;28;19960;-75
2022/12/08 09:48:12;;;;;;;;;;;0.00;99.90;;;;;;5042398;28;20277;-75
2022/12/08 09:50:47;;;;;;;;;;;0.00;99.90;;;;;;5037473;28;20291;-74
2022/12/08 09:53:22;;;;;;;;;;;0.00;99.90;;;;;;5036816;28;20351;-73
2022/12/08 09:55:57;;;;;;;;;;;0.00;99.90;;;;;;5042233;28;19925;-76
2022/12/08 09:58:32;;;;;;;;;;;0.10;99.90;;;;;;5031943;28;19929;-77
2022/12/08 10:01:03;;;;;;;;;;;0.20;99.90;;;;;;5019561;28;19929;-76
2022/12/08 10:03:39;;;;;;;;;;;0.20;99.90;;;;;;5030540;28;19979;-75
2022/12/08 10:06:25;;;;;;;;;;;0.20;99.90;;;;;;5032214;28;20564;-74
2022/12/08 10:09:00;;;;;;;;;;;0.30;99.90;;;;;;5018159;28;19925;-74
2022/12/08 10:11:39;;;;;;;;;;;0.30;99.90;;;;;;5036302;28;19925;-73
2022/12/08 10:14:17;;;;;;;;;;;0.40;99.90;;;;;;5032236;28;19952;-72
2022/12/08 10:16:50;;;;;;;;;;;0.30;99.90;;;;;;5032687;28;19935;-74
2022/12/08 10:19:24;;;;;;;;;;;0.40;99.90;;;;;;5007816;28;19925;-72
2022/12/08 10:21:55;;;;;;;;;;;0.40;99.90;;;;;;5029997;28;19979;-75
2022/12/08 10:24:41;;;;;;;;;;;0.50;99.90;;;;;;5035486;28;19925;-73
2022/12/08 10:27:12;;;;;;;;;;;0.50;99.90;;;;;;5037498;28;19925;-74
2022/12/08 10:29:44;;;;;;;;;;;0.50;99.90;;;;;;5026711;28;19925;-75
2022/12/08 10:32:17;;;;;;;;;;;0.60;99.90;;;;;;5034892;28;19925;-73
2022/12/08 10:35:03;;;;;;;;;;;0.60;99.90;;;;;;5022309;28;19925;-73
2022/12/08 10:37:35;;;;;;;;;;;0.70;99.90;;;;;;5014304;28;20269;-72
2022/12/08 10:40:07;;;;;;;;;;;0.70;99.90;;;;;;5014568;28;20398;-73
2022/12/08 10:42:40;;;;;;;;;;;0.70;99.90;;;;;;5026487;28;20392;-75
2022/12/08 10:45:09;;;;;;;;;;;0.70;99.90;;;;;;5030286;28;19926;-73
2022/12/08 10:47:41;;;;;;;;;;;0.70;99.90;;;;;;5050443;28;19955;-74
2022/12/08 10:50:18;;;;;;;;;;;0.70;99.90;;;;;;5030750;28;19925;-73
2022/12/08 10:53:00;;;;;;;;;;;0.70;99.90;;;;;;5014862;28;19944;-73
2022/12/08 10:55:52;;;;;;;;;;;0.80;99.90;;;;;;5035541;28;19978;-74
2022/12/08 10:58:34;;;;;;;;;;;0.80;99.90;;;;;;5033845;28;19925;-75
2022/12/08 11:01:10;;;;;;;;;;;0.90;99.90;;;;;;5028272;28;19925;-74
2022/12/08 11:03:54;;;;;;;;;;;0.90;99.90;;;;;;5028063;28;19971;-74
2022/12/08 11:06:36;;;;;;;;;;;1.10;99.90;;;;;;5011966;28;19936;-73
2022/12/08 11:09:16;;;;;;;;;;;1.10;99.90;;;;;;5014098;28;20304;-74
2022/12/08 11:11:49;;;;;;;;;;;1.10;99.90;;;;;;5029220;28;20412;-74
2022/12/08 11:14:21;;;;;;;;;;;1.20;99.90;;;;;;5026947;28;19979;-74
2022/12/08 11:17:08;;;;;;;;;;;1.20;99.90;;;;;;5033544;28;19981;-75
2022/12/08 11:19:41;;;;;;;;;;;1.20;99.90;;;;;;5023115;28;19952;-74
2022/12/08 11:22:28;;;;;;;;;;;1.20;99.90;;;;;;5017800;28;19925;-74
2022/12/08 11:25:12;;;;;;;;;;;1.20;99.90;;;;;;4998876;28;19933;-77
2022/12/08 11:27:45;;;;;;;;;;;1.20;99.90;;;;;;5031578;28;20399;-75
2022/12/08 11:30:24;;;;;;;;;;;1.30;99.90;;;;;;5035278;28;19979;-73
2022/12/08 11:33:00;;;;;;;;;;;1.30;99.90;;;;;;5042260;28;19932;-75
2022/12/08 11:35:40;;;;;;;;;;;1.40;99.90;;;;;;5019102;28;19929;-74
2022/12/08 11:38:11;;;;;;;;;;;1.50;99.90;;;;;;4978587;28;19976;-75
2022/12/08 11:40:43;;;;;;;;;;;1.60;99.90;;;;;;5025471;28;19937;-74
2022/12/08 11:43:15;;;;;;;;;;;1.60;99.90;;;;;;5051628;28;19925;-75
2022/12/08 11:45:52;;;;;;;;;;;1.60;99.90;;;;;;5041877;28;19932;-73
2022/12/08 11:48:35;;;;;;;;;;;1.60;99.90;;;;;;5033859;28;20338;-75
2022/12/08 11:51:12;;;;;;;;;;;1.70;99.90;;;;;;5013562;28;20015;-75
2022/12/08 11:54:02;;;;;;;;;;;1.70;99.90;;;;;;5033843;28;20322;-75
2022/12/08 11:56:39;;;;;;;;;;;1.70;99.90;;;;;;5033891;28;19925;-75
2022/12/08 11:59:16;;;;;;;;;;;1.60;99.90;;;;;;5037552;28;20384;-73
2022/12/08 12:01:48;;;;;;;;;;;1.60;99.90;;;;;;5015943;28;19932;-74
2022/12/08 12:04:36;;;;;;;;;;;1.60;99.90;;;;;;5011282;28;19925;-74
2022/12/08 12:07:14;;;;;;;;;;;1.60;99.90;;;;;;5015021;28;20469;-73
2022/12/08 12:09:58;;;;;;;;;;;1.70;99.90;;;;;;5014645;28;20361;-74
2022/12/08 12:12:43;;;;;;;;;;;1.70;99.90;;;;;;5025749;28;19929;-74
2022/12/08 12:15:14;;;;;;;;;;;1.80;99.90;;;;;;5025594;28;19925;-73
2022/12/08 12:17:49;;;;;;;;;;;1.90;99.90;;;;;;4992671;28;19952;-74
2022/12/08 12:20:23;;;;;;;;;;;1.90;99.90;;;;;;5018722;28;19929;-76
2022/12/08 12:22:59;;;;;;;;;;;1.90;99.90;;;;;;5036481;28;20331;-74
2022/12/08 12:25:32;;;;;;;;;;;1.90;99.90;;;;;;5036581;28;19937;-74
2022/12/08 12:28:05;;;;;;;;;;;1.90;99.90;;;;;;5029454;28;19980;-75
2022/12/08 12:30:59;;;;;;;;;;;1.90;99.90;;;;;;5010999;28;20404;-73
2022/12/08 12:33:31;;;;;;;;;;;2.00;99.90;;;;;;5032112;28;19929;-74
2022/12/08 12:36:07;;;;;;;;;;;2.00;99.90;;;;;;5023982;28;19933;-73
2022/12/08 12:39:03;;;;;;;;;;;2.00;99.90;;;;;;5020995;28;20311;-74
2022/12/08 12:41:40;;;;;;;;;;;2.10;99.90;;;;;;5021962;28;19932;-73
2022/12/08 12:44:12;;;;;;;;;;;2.10;99.90;;;;;;5008036;28;19979;-74
2022/12/08 12:46:50;;;;;;;;;;;2.10;99.90;;;;;;5032007;28;19951;-74
2022/12/08 12:49:42;;;;;;;;;;;2.10;99.90;;;;;;5030746;28;20342;-74
2022/12/08 12:52:14;;;;;;;;;;;2.10;99.90;;;;;;5024599;28;19983;-74
2022/12/08 12:54:41;;;;;;;;;;;2.00;99.90;;;;;;5039034;28;19925;-74
2022/12/08 12:57:13;;;;;;;;;;;2.10;99.90;;;;;;5036345;28;19925;-74
2022/12/08 13:00:05;;;;;;;;;;;2.10;99.90;;;;;;5029813;28;19925;-74
2022/12/08 13:02:42;;;;;;;;;;;2.10;99.90;;;;;;5035386;28;19929;-73
2022/12/08 13:05:17;;;;;;;;;;;2.10;99.90;;;;;;5041492;28;19928;-75
2022/12/08 13:07:51;;;;;;;;;;;2.10;99.90;;;;;;5033891;28;20354;-73
2022/12/08 13:10:29;;;;;;;;;;;2.10;99.90;;;;;;5025934;28;19971;-73
2022/12/08 13:13:01;;;;;;;;;;;2.10;99.90;;;;;;5043928;28;19937;-75
2022/12/08 13:15:52;;;;;;;;;;;2.10;99.90;;;;;;5032946;28;19932;-75
2022/12/08 13:18:24;;;;;;;;;;;2.10;99.90;;;;;;5017728;28;20609;-75
2022/12/08 13:21:01;;;;;;;;;;;2.10;99.90;;;;;;5033667;28;19979;-75
2022/12/08 13:23:36;;;;;;;;;;;2.10;99.90;;;;;;5039862;28;19933;-73
2022/12/08 13:26:08;;;;;;;;;;;2.00;99.90;;;;;;5039066;28;20007;-75
2022/12/08 13:28:58;;;;;;;;;;;2.00;99.90;;;;;;5034969;28;19925;-74
2022/12/08 13:31:40;;;;;;;;;;;2.00;99.90;;;;;;5019361;28;19978;-73
2022/12/08 13:34:15;;;;;;;;;;;2.00;99.90;;;;;;5034503;28;19933;-72
2022/12/08 13:36:59;;;;;;;;;;;1.90;99.90;;;;;;5026119;28;19929;-74
2022/12/08 13:39:39;;;;;;;;;;;1.90;99.90;;;;;;5036833;28;20676;-74
2022/12/08 13:42:11;;;;;;;;;;;2.00;99.90;;;;;;5038994;28;19929;-73
2022/12/08 13:45:02;;;;;;;;;;;2.00;99.90;;;;;;5031776;28;19936;-74
2022/12/08 13:47:35;;;;;;;;;;;2.00;99.90;;;;;;5047467;28;20417;-75
2022/12/08 13:50:10;;;;;;;;;;;2.00;99.90;;;;;;5025577;28;19964;-74
2022/12/08 13:53:01;;;;;;;;;;;2.00;99.90;;;;;;5044458;28;19964;-74
2022/12/08 13:55:37;;;;;;;;;;;1.90;99.90;;;;;;5028778;28;20299;-75
2022/12/08 13:58:32;;;;;;;;;;;1.90;99.90;;;;;;5016943;28;19925;-74
2022/12/08 14:01:04;;;;;;;;;;;2.00;99.90;;;;;;5013160;28;19972;-73
2022/12/08 14:03:48;;;;;;;;;;;2.00;99.90;;;;;;5030703;28;19925;-74
2022/12/08 14:06:25;;;;;;;;;;;2.00;99.90;;;;;;5021418;28;19925;-73
2022/12/08 14:08:58;;;;;;;;;;;2.00;99.90;;;;;;5037504;28;20608;-72
2022/12/08 14:11:33;;;;;;;;;;;2.00;99.90;;;;;;5034964;28;20383;-73
2022/12/08 14:14:16;;;;;;;;;;;2.00;99.90;;;;;;5029287;28;19929;-74
2022/12/08 14:16:51;;;;;;;;;;;2.00;99.90;;;;;;5013466;28;20388;-74
2022/12/08 14:19:24;;;;;;;;;;;2.10;99.90;;;;;;5030372;28;19933;-73
2022/12/08 14:22:09;;;;;;;;;;;2.10;99.90;;;;;;5041050;28;19925;-74
2022/12/08 14:24:44;;;;;;;;;;;2.10;99.90;;;;;;5033079;28;19925;-73
2022/12/08 14:27:23;;;;;;;;;;;2.20;99.90;;;;;;5034848;28;19925;-74
2022/12/08 14:30:15;;;;;;;;;;;2.20;99.90;;;;;;5038898;28;20391;-74
2022/12/08 14:32:48;;;;;;;;;;;2.10;99.90;;;;;;5024695;28;19979;-75
2022/12/08 14:35:29;;;;;;;;;;;2.10;99.90;;;;;;5014286;28;19925;-73
2022/12/08 14:38:08;;;;;;;;;;;2.10;99.90;;;;;;5032700;28;20060;-75
2022/12/08 14:40:41;;;;;;;;;;;2.10;99.90;;;;;;5041429;28;19932;-76
2022/12/08 14:43:18;;;;;;;;;;;2.00;99.90;;;;;;5029894;28;19935;-75
2022/12/08 14:45:52;;;;;;;;;;;2.00;99.90;;;;;;5038866;28;20484;-73
2022/12/08 14:48:29;;;;;;;;;;;2.00;99.90;;;;;;5043982;28;19929;-74
2022/12/08 14:51:18;;;;;;;;;;;1.90;99.90;;;;;;5045379;28;19975;-74
2022/12/08 14:53:57;;;;;;;;;;;1.90;99.90;;;;;;5044923;28;19925;-75
2022/12/08 14:56:34;;;;;;;;;;;1.90;99.90;;;;;;5038348;28;19959;-74
2022/12/08 14:59:14;;;;;;;;;;;1.90;99.90;;;;;;5016796;28;19925;-77
2022/12/08 15:01:47;;;;;;;;;;;1.80;99.90;;;;;;5033814;28;20510;-74
2022/12/08 15:04:23;;;;;;;;;;;1.80;99.90;;;;;;5047596;28;19925;-74
2022/12/08 15:07:05;;;;;;;;;;;1.80;99.90;;;;;;5040400;28;19925;-75
2022/12/08 15:09:39;;;;;;;;;;;1.80;99.90;;;;;;5029779;28;20331;-74
2022/12/08 15:12:11;;;;;;;;;;;1.70;99.90;;;;;;5035304;28;20396;-74